Time;durP1;ratioP1;P1;durP2;ratioP2;P2;SDS_P1;SDS_P2;PMS_P1;PMS_P2;Temp;Humidity;BMP_temperature;BMP_pressure;BME280_temperature;BME280_humidity;BME280_pressure;Samples;Min_cycle;Max_cycle;Signal;HPM_P1;HPM_P2
2023/03/10 00:01:17;;;;;;;;;;;;;;;10.51;71.62;94542.09;5155523;27;980;-56
2023/03/10 00:03:44;;;;;;;;;;;;;;;10.51;71.94;94542.09;5155231;27;1036;-56
2023/03/10 00:06:11;;;;;;;;;;;;;;;10.44;71.90;94538.44;5155034;27;1065;-56
2023/03/10 00:08:37;;;;;;;;;;;;;;;10.46;71.71;94537.25;5155346;27;1047;-56
2023/03/10 00:11:03;;;;;;;;;;;;;;;10.56;71.28;94526.34;5151098;27;1286;-56
2023/03/10 00:13:29;;;;;;;;;;;;;;;10.44;71.58;94533.09;5134150;28;1909;-57
2023/03/10 00:15:55;;;;;;;;;;;;;;;10.22;72.21;94524.81;5134222;27;1047;-57
2023/03/10 00:18:21;;;;;;;;;;;;;;;10.11;72.50;94535.88;5116090;28;1044;-56
2023/03/10 00:20:51;;;;;;;;;;;;;;;9.97;73.01;94534.75;5134240;28;1096;-56
2023/03/10 00:23:17;;;;;;;;;;;;;;;10.04;72.35;94534.94;5134566;28;1036;-56
2023/03/10 00:25:43;;;;;;;;;;;;;;;9.94;73.24;94525.28;5134497;28;945;-56
2023/03/10 00:28:09;;;;;;;;;;;;;;;9.71;73.54;94524.31;5134397;28;1009;-56
2023/03/10 00:30:35;;;;;;;;;;;;;;;9.72;73.99;94515.34;5134579;28;1047;-56
2023/03/10 00:33:01;;;;;;;;;;;;;;;9.64;73.91;94524.19;5134284;28;977;-56
2023/03/10 00:35:27;;;;;;;;;;;;;;;9.42;74.78;94516.91;5134002;28;1986;-56
2023/03/10 00:37:54;;;;;;;;;;;;;;;9.35;74.49;94524.72;5134508;28;1325;-56
2023/03/10 00:40:21;;;;;;;;;;;;;;;9.35;74.66;94516.72;5134213;28;1044;-57
2023/03/10 00:42:47;;;;;;;;;;;;;;;9.42;74.62;94519.56;5134289;28;1126;-57
2023/03/10 00:45:13;;;;;;;;;;;;;;;9.57;74.41;94516.03;5115930;28;988;-57
2023/03/10 00:47:39;;;;;;;;;;;;;;;9.56;74.69;94517.03;5134414;28;977;-57
2023/03/10 00:50:05;;;;;;;;;;;;;;;9.30;74.26;94517.25;5134024;28;1187;-57
2023/03/10 00:52:32;;;;;;;;;;;;;;;9.27;74.97;94522.91;5134191;28;1023;-56
2023/03/10 00:54:58;;;;;;;;;;;;;;;9.24;74.58;94511.75;5133917;28;1981;-57
2023/03/10 00:57:24;;;;;;;;;;;;;;;9.24;74.37;94517.06;5134207;28;1012;-56
2023/03/10 00:59:50;;;;;;;;;;;;;;;9.27;74.54;94508.75;5133922;28;1136;-57
2023/03/10 01:02:19;;;;;;;;;;;;;;;9.25;74.46;94516.91;5133781;28;1124;-57
2023/03/10 01:04:46;;;;;;;;;;;;;;;9.27;74.84;94516.75;5115790;28;1303;-57
2023/03/10 01:07:12;;;;;;;;;;;;;;;9.19;74.45;94517.59;5134027;28;1019;-57
2023/03/10 01:09:38;;;;;;;;;;;;;;;8.85;74.92;94521.25;5134048;28;1004;-57
2023/03/10 01:12:04;;;;;;;;;;;;;;;8.70;75.71;94521.06;5146643;27;1587;-57
2023/03/10 01:14:31;;;;;;;;;;;;;;;8.89;76.11;94519.91;5154267;27;1913;-57
2023/03/10 01:16:58;;;;;;;;;;;;;;;8.87;75.65;94516.59;5154602;27;1020;-57
2023/03/10 01:19:24;;;;;;;;;;;;;;;8.95;75.66;94505.94;5154394;27;1108;-57
2023/03/10 01:21:50;;;;;;;;;;;;;;;8.99;75.74;94517.09;5154669;27;1019;-57
2023/03/10 01:24:16;;;;;;;;;;;;;;;8.97;75.10;94513.75;5154326;27;1116;-57
2023/03/10 01:26:42;;;;;;;;;;;;;;;8.87;76.09;94521.94;5154591;27;976;-57
2023/03/10 01:29:08;;;;;;;;;;;;;;;8.72;75.41;94516.41;5157947;27;1135;-57
2023/03/10 01:31:34;;;;;;;;;;;;;;;8.32;76.74;94522.47;5157999;27;1064;-57
2023/03/10 01:34:00;;;;;;;;;;;;;;;8.32;76.66;94517.97;5157952;27;1995;-57
2023/03/10 01:36:26;;;;;;;;;;;;;;;8.37;77.30;94515.66;5158269;27;1067;-57
2023/03/10 01:38:54;;;;;;;;;;;;;;;8.34;77.29;94515.16;5158230;27;1055;-57
2023/03/10 01:41:20;;;;;;;;;;;;;;;8.38;77.29;94516.50;5157869;27;1111;-57
2023/03/10 01:43:50;;;;;;;;;;;;;;;8.05;76.58;94516.41;5157944;27;1036;-57
2023/03/10 01:46:25;;;;;;;;;;;;;;;7.77;78.60;94523.78;5157790;27;1032;-57
2023/03/10 01:48:53;;;;;;;;;;;;;;;7.75;79.75;94523.09;5158031;27;1035;-57
2023/03/10 01:51:19;;;;;;;;;;;;;;;8.01;78.75;94517.72;5157628;27;1040;-57
2023/03/10 01:53:45;;;;;;;;;;;;;;;8.20;77.81;94514.78;5157574;27;2000;-57
2023/03/10 01:56:12;;;;;;;;;;;;;;;8.27;77.70;94519.47;5157673;27;972;-57
2023/03/10 01:58:41;;;;;;;;;;;;;;;7.88;77.30;94526.16;5157619;27;1035;-57
2023/03/10 02:01:08;;;;;;;;;;;;;;;8.01;78.08;94523.06;5157741;27;1004;-57
2023/03/10 02:03:47;;;;;;;;;;;;;;;8.20;77.62;94517.44;5157406;27;1115;-57
2023/03/10 02:06:13;;;;;;;;;;;;;;;7.96;77.45;94512.88;5157524;27;1012;-57
2023/03/10 02:08:41;;;;;;;;;;;;;;;8.00;77.94;94508.06;5157482;27;981;-57
2023/03/10 02:11:07;;;;;;;;;;;;;;;8.18;78.24;94506.13;5152622;27;1529;-57
2023/03/10 02:13:33;;;;;;;;;;;;;;;7.99;77.91;94501.91;5136258;27;1917;-57
2023/03/10 02:15:59;;;;;;;;;;;;;;;7.99;77.40;94512.56;5136750;27;1276;-57
2023/03/10 02:18:27;;;;;;;;;;;;;;;8.06;77.50;94511.91;5136662;27;972;-57
2023/03/10 02:21:02;;;;;;;;;;;;;;;8.05;78.05;94515.59;5136512;27;996;-57
2023/03/10 02:23:37;;;;;;;;;;;;;;;7.96;78.25;94515.53;5136333;27;1029;-57
2023/03/10 02:26:14;;;;;;;;;;;;;;;7.90;78.84;94510.03;5136629;27;1000;-57
2023/03/10 02:28:41;;;;;;;;;;;;;;;7.80;80.03;94510.16;5136504;27;1020;-57
2023/03/10 02:31:07;;;;;;;;;;;;;;;7.70;79.50;94499.66;5136396;27;969;-57
2023/03/10 02:33:35;;;;;;;;;;;;;;;7.78;78.96;94505.00;5136111;27;1999;-57
2023/03/10 02:36:03;;;;;;;;;;;;;;;7.85;78.49;94505.19;5136107;27;1052;-57
2023/03/10 02:38:29;;;;;;;;;;;;;;;7.89;78.32;94497.72;5117986;27;1017;-57
2023/03/10 02:40:56;;;;;;;;;;;;;;;7.71;78.82;94498.63;5135952;27;992;-57
2023/03/10 02:43:22;;;;;;;;;;;;;;;7.81;78.73;94499.34;5117753;27;913;-57
2023/03/10 02:45:49;;;;;;;;;;;;;;;7.86;78.84;94500.72;5136193;27;957;-57
2023/03/10 02:48:19;;;;;;;;;;;;;;;7.90;78.81;94494.91;5135915;27;1039;-57
2023/03/10 02:50:46;;;;;;;;;;;;;;;7.90;78.22;94496.72;5136133;27;1055;-57
2023/03/10 02:53:14;;;;;;;;;;;;;;;7.62;78.71;94494.28;5135515;27;1909;-57
2023/03/10 02:55:40;;;;;;;;;;;;;;;7.75;77.88;94497.31;5117499;27;1037;-57
2023/03/10 02:58:07;;;;;;;;;;;;;;;7.79;78.36;94495.19;5135652;27;1103;-57
2023/03/10 03:00:35;;;;;;;;;;;;;;;7.74;78.59;94493.00;5135717;27;1044;-57
2023/03/10 03:03:02;;;;;;;;;;;;;;;7.47;78.82;94488.69;5135697;27;1005;-57
2023/03/10 03:05:28;;;;;;;;;;;;;;;7.46;78.81;94486.22;5135698;27;969;-57
2023/03/10 03:07:54;;;;;;;;;;;;;;;7.41;79.20;94478.72;5135476;27;985;-57
2023/03/10 03:10:20;;;;;;;;;;;;;;;7.13;80.56;94478.03;5135623;27;1079;-57
2023/03/10 03:12:49;;;;;;;;;;;;;;;7.30;80.00;94477.13;5153959;27;1545;-57
2023/03/10 03:15:15;;;;;;;;;;;;;;;7.46;80.44;94483.56;5155928;27;1975;-57
2023/03/10 03:17:41;;;;;;;;;;;;;;;7.44;80.17;94483.72;5155983;27;1586;-57
2023/03/10 03:20:12;;;;;;;;;;;;;;;7.16;81.52;94475.91;5156203;27;949;-57
2023/03/10 03:22:43;;;;;;;;;;;;;;;7.02;82.00;94473.84;5155900;27;1112;-56
2023/03/10 03:25:10;;;;;;;;;;;;;;;7.23;82.95;94471.63;5155894;27;1037;-57
2023/03/10 03:27:36;;;;;;;;;;;;;;;7.31;81.94;94467.38;5155479;27;1136;-57
2023/03/10 03:30:06;;;;;;;;;;;;;;;7.47;81.62;94475.41;5155706;27;1254;-57
2023/03/10 03:32:33;;;;;;;;;;;;;;;7.68;80.90;94482.97;5155352;27;1120;-57
2023/03/10 03:35:00;;;;;;;;;;;;;;;7.67;80.96;94484.00;5155872;27;1989;-56
2023/03/10 03:37:26;;;;;;;;;;;;;;;7.59;81.00;94487.44;5155526;27;1884;-56
2023/03/10 03:39:52;;;;;;;;;;;;;;;7.58;81.11;94490.25;5155775;27;1009;-56
2023/03/10 03:42:18;;;;;;;;;;;;;;;7.65;80.86;94485.16;5155673;27;1055;-57
2023/03/10 03:44:44;;;;;;;;;;;;;;;7.50;80.17;94480.41;5137338;27;965;-57
2023/03/10 03:47:10;;;;;;;;;;;;;;;7.43;80.73;94492.69;5155430;27;964;-57
2023/03/10 03:49:37;;;;;;;;;;;;;;;7.59;80.48;94489.28;5136621;27;1032;-57
2023/03/10 03:52:04;;;;;;;;;;;;;;;7.68;80.75;94487.47;5155468;27;1390;-57
2023/03/10 03:54:30;;;;;;;;;;;;;;;7.54;80.64;94479.09;5155205;27;1902;-57
2023/03/10 03:56:56;;;;;;;;;;;;;;;7.55;80.26;94478.13;5155586;27;1019;-57
2023/03/10 03:59:22;;;;;;;;;;;;;;;7.60;80.59;94477.63;5155096;27;1103;-57
2023/03/10 04:01:48;;;;;;;;;;;;;;;7.47;81.50;94482.56;5155175;27;1048;-57
2023/03/10 04:04:14;;;;;;;;;;;;;;;7.31;81.56;94481.47;5155131;27;1040;-57
2023/03/10 04:06:41;;;;;;;;;;;;;;;7.27;82.06;94484.63;5155089;27;1000;-57
2023/03/10 04:09:09;;;;;;;;;;;;;;;7.36;81.42;94492.50;5155489;27;1004;-57
2023/03/10 04:11:35;;;;;;;;;;;;;;;7.41;81.32;94486.69;5146586;27;1609;-56
2023/03/10 04:14:01;;;;;;;;;;;;;;;7.21;81.71;94478.09;5134196;28;1971;-57
2023/03/10 04:16:27;;;;;;;;;;;;;;;7.27;81.54;94485.44;5134387;28;965;-57
2023/03/10 04:18:53;;;;;;;;;;;;;;;7.38;81.40;94484.34;5134331;28;1131;-57
2023/03/10 04:21:19;;;;;;;;;;;;;;;7.48;81.05;94482.41;5116053;28;1037;-57
2023/03/10 04:23:45;;;;;;;;;;;;;;;7.52;81.01;94477.59;5134570;28;1045;-57
2023/03/10 04:26:12;;;;;;;;;;;;;;;7.51;80.55;94476.78;5134476;28;1048;-57
2023/03/10 04:28:38;;;;;;;;;;;;;;;7.53;80.76;94482.78;5134363;28;1012;-57
2023/03/10 04:31:10;;;;;;;;;;;;;;;7.46;80.86;94483.56;5134561;28;1025;-56
2023/03/10 04:33:36;;;;;;;;;;;;;;;7.06;82.83;94482.31;5134352;28;1914;-56
2023/03/10 04:36:02;;;;;;;;;;;;;;;6.94;82.61;94469.28;5134390;28;972;-56
2023/03/10 04:38:29;;;;;;;;;;;;;;;6.72;84.84;94459.16;5134404;28;1020;-56
2023/03/10 04:40:55;;;;;;;;;;;;;;;6.83;84.87;94451.78;5133964;28;1103;-57
2023/03/10 04:43:21;;;;;;;;;;;;;;;7.17;83.47;94456.31;5134246;28;965;-56
2023/03/10 04:45:47;;;;;;;;;;;;;;;7.33;82.82;94455.56;5134129;28;1293;-57
2023/03/10 04:48:13;;;;;;;;;;;;;;;7.34;82.63;94448.41;5134247;28;1036;-57
2023/03/10 04:50:40;;;;;;;;;;;;;;;7.15;81.65;94449.47;5133902;28;1116;-57
2023/03/10 04:53:06;;;;;;;;;;;;;;;7.02;82.17;94450.75;5134070;28;973;-56
2023/03/10 04:55:32;;;;;;;;;;;;;;;6.90;82.84;94451.16;5134074;28;1906;-55
2023/03/10 04:57:58;;;;;;;;;;;;;;;6.86;83.26;94442.66;5134102;28;1005;-55
2023/03/10 05:00:24;;;;;;;;;;;;;;;7.00;83.09;94444.75;5133781;28;1033;-55
2023/03/10 05:02:50;;;;;;;;;;;;;;;6.97;82.69;94446.88;5135767;27;949;-55
2023/03/10 05:05:16;;;;;;;;;;;;;;;6.80;82.66;94441.44;5137684;27;1057;-56
2023/03/10 05:07:42;;;;;;;;;;;;;;;6.88;82.44;94445.16;5138017;27;977;-54
2023/03/10 05:10:09;;;;;;;;;;;;;;;6.98;82.69;94438.75;5137749;27;1049;-55
2023/03/10 05:12:36;;;;;;;;;;;;;;;6.96;81.43;94434.56;5154697;27;1537;-55
2023/03/10 05:15:03;;;;;;;;;;;;;;;6.57;83.12;94424.34;5158693;27;1984;-55
2023/03/10 05:17:29;;;;;;;;;;;;;;;6.80;82.96;94427.34;5158136;27;1041;-55
2023/03/10 05:19:56;;;;;;;;;;;;;;;6.95;83.11;94427.59;5158600;27;1031;-55
2023/03/10 05:22:22;;;;;;;;;;;;;;;6.87;82.64;94430.19;5140182;27;1003;-55
2023/03/10 05:24:48;;;;;;;;;;;;;;;7.01;82.27;94434.94;5158493;27;987;-55
2023/03/10 05:27:17;;;;;;;;;;;;;;;7.05;82.36;94444.28;5158057;27;1122;-55
2023/03/10 05:29:43;;;;;;;;;;;;;;;7.16;82.04;94444.00;5158404;27;984;-56
2023/03/10 05:32:09;;;;;;;;;;;;;;;7.15;82.07;94442.34;5158380;27;1020;-56
2023/03/10 05:34:35;;;;;;;;;;;;;;;7.04;81.46;94434.66;5139540;27;2019;-56
2023/03/10 05:37:01;;;;;;;;;;;;;;;6.84;82.26;94432.16;5158238;27;985;-56
2023/03/10 05:39:27;;;;;;;;;;;;;;;6.97;82.00;94426.44;5157765;27;1052;-56
2023/03/10 05:41:53;;;;;;;;;;;;;;;6.89;83.74;94420.25;5157794;27;1131;-57
2023/03/10 05:44:19;;;;;;;;;;;;;;;6.96;83.88;94416.81;5158063;27;1372;-56
2023/03/10 05:46:45;;;;;;;;;;;;;;;7.23;82.42;94415.81;5158069;27;964;-55
2023/03/10 05:49:11;;;;;;;;;;;;;;;7.30;82.33;94405.34;5157605;27;1072;-56
2023/03/10 05:51:37;;;;;;;;;;;;;;;7.22;80.62;94411.47;5157643;27;1100;-56
2023/03/10 05:54:05;;;;;;;;;;;;;;;7.16;80.98;94420.06;5157870;27;1909;-56
2023/03/10 05:56:31;;;;;;;;;;;;;;;7.39;80.55;94419.53;5157568;27;1049;-56
2023/03/10 05:58:57;;;;;;;;;;;;;;;7.62;80.86;94425.09;5157550;27;1044;-56
2023/03/10 06:01:23;;;;;;;;;;;;;;;7.88;80.42;94425.03;5157630;27;1040;-55
2023/03/10 06:03:49;;;;;;;;;;;;;;;8.11;79.77;94425.22;5157770;27;1024;-57
2023/03/10 06:06:15;;;;;;;;;;;;;;;8.34;79.00;94427.25;5157323;27;1083;-56
2023/03/10 06:08:41;;;;;;;;;;;;;;;8.40;79.28;94416.78;5139358;27;1024;-57
2023/03/10 06:11:08;;;;;;;;;;;;;;;8.65;78.57;94422.16;5152756;27;1243;-57
2023/03/10 06:13:34;;;;;;;;;;;;;;;8.85;77.77;94421.81;5117549;27;1988;-57
2023/03/10 06:16:03;;;;;;;;;;;;;;;9.05;76.94;94425.78;5118226;27;1142;-57
2023/03/10 06:18:29;;;;;;;;;;;;;;;9.26;75.99;94430.56;5136326;27;957;-57
2023/03/10 06:20:55;;;;;;;;;;;;;;;9.47;76.26;94429.19;5136559;27;1048;-57
2023/03/10 06:23:22;;;;;;;;;;;;;;;10.02;74.51;94422.09;5136412;27;1059;-57
2023/03/10 06:25:58;;;;;;;;;;;;;;;11.04;70.74;94425.38;5118451;27;1043;-57
2023/03/10 06:28:25;;;;;;;;;;;;;;;11.91;67.10;94427.47;5136211;27;972;-57
2023/03/10 06:30:55;;;;;;;;;;;;;;;11.71;67.44;94421.81;5136155;27;1029;-57
2023/03/10 06:33:22;;;;;;;;;;;;;;;11.01;70.75;94419.56;5135963;27;1918;-57
2023/03/10 06:35:48;;;;;;;;;;;;;;;10.61;72.25;94413.56;5136276;27;1052;-57
2023/03/10 06:38:14;;;;;;;;;;;;;;;10.35;74.75;94412.06;5135969;27;984;-57
2023/03/10 06:40:40;;;;;;;;;;;;;;;10.26;74.68;94416.59;5136311;27;960;-57
2023/03/10 06:43:07;;;;;;;;;;;;;;;10.22;75.44;94417.13;5135759;27;1045;-57
2023/03/10 06:45:33;;;;;;;;;;;;;;;10.19;76.18;94414.78;5117651;27;1025;-57
2023/03/10 06:47:59;;;;;;;;;;;;;;;10.23;75.11;94418.81;5117470;27;1029;-57
2023/03/10 06:50:25;;;;;;;;;;;;;;;10.14;75.87;94421.50;5135924;27;1067;-57
2023/03/10 06:52:51;;;;;;;;;;;;;;;9.96;76.48;94418.28;5135486;27;1061;-57
2023/03/10 06:55:17;;;;;;;;;;;;;;;9.64;78.06;94414.75;5135683;27;1906;-57
2023/03/10 06:57:43;;;;;;;;;;;;;;;9.71;77.66;94414.88;5135742;27;982;-55
2023/03/10 07:00:14;;;;;;;;;;;;;;;9.44;79.05;94411.66;5135611;27;1020;-56
2023/03/10 07:02:40;;;;;;;;;;;;;;;9.42;78.74;94407.50;5135411;27;732;-56
2023/03/10 07:05:09;;;;;;;;;;;;;;;9.47;78.62;94405.16;5135454;27;1035;-56
2023/03/10 07:07:35;;;;;;;;;;;;;;;9.42;78.73;94395.00;5135487;27;984;-56
2023/03/10 07:10:02;;;;;;;;;;;;;;;9.48;79.03;94396.97;5135541;27;965;-55
2023/03/10 07:12:28;;;;;;;;;;;;;;;9.44;79.86;94402.84;5151251;27;1609;-56
2023/03/10 07:14:54;;;;;;;;;;;;;;;9.31;80.37;94395.38;5156130;27;1980;-55
2023/03/10 07:17:21;;;;;;;;;;;;;;;9.43;80.25;94403.81;5137791;27;996;-56
2023/03/10 07:19:47;;;;;;;;;;;;;;;9.51;80.03;94401.97;5155763;27;1116;-56
2023/03/10 07:22:13;;;;;;;;;;;;;;;9.62;80.35;94398.09;5155737;27;1027;-56
2023/03/10 07:24:39;;;;;;;;;;;;;;;9.69;79.44;94387.53;5155012;27;1037;-56
2023/03/10 07:27:05;;;;;;;;;;;;;;;10.00;77.16;94390.22;5155514;27;1011;-56
2023/03/10 07:29:31;;;;;;;;;;;;;;;10.17;76.82;94390.97;5155394;27;1049;-56
2023/03/10 07:31:57;;;;;;;;;;;;;;;10.37;76.24;94383.31;5137300;27;1033;-55
2023/03/10 07:34:23;;;;;;;;;;;;;;;10.75;74.80;94378.81;5155615;27;1906;-56
2023/03/10 07:36:49;;;;;;;;;;;;;;;10.90;74.71;94370.00;5155593;27;1040;-55
2023/03/10 07:39:16;;;;;;;;;;;;;;;11.21;72.49;94377.03;5155451;27;1040;-55
2023/03/10 07:41:42;;;;;;;;;;;;;;;11.52;71.79;94376.88;5155185;27;1049;-56
2023/03/10 07:44:08;;;;;;;;;;;;;;;11.49;72.08;94370.00;5155688;27;1281;-56
2023/03/10 07:46:34;;;;;;;;;;;;;;;11.42;71.84;94366.44;5137257;27;1063;-56
2023/03/10 07:49:03;;;;;;;;;;;;;;;11.55;71.74;94364.94;5154539;27;1016;-56
2023/03/10 07:51:32;;;;;;;;;;;;;;;11.79;70.97;94366.50;5155218;27;1112;-56
2023/03/10 07:53:58;;;;;;;;;;;;;;;11.91;71.08;94354.28;5155218;27;1996;-55
2023/03/10 07:56:24;;;;;;;;;;;;;;;11.85;70.56;94355.00;5155124;27;1052;-55
2023/03/10 07:58:50;;;;;;;;;;;;;;;12.00;69.81;94349.66;5155169;27;1192;-56
2023/03/10 08:01:21;;;;;;;;;;;;;;;11.71;70.86;94351.38;5155431;27;1016;-57
2023/03/10 08:03:48;;;;;;;;;;;;;;;11.87;70.52;94350.28;5155331;27;1029;-57
2023/03/10 08:06:15;;;;;;;;;;;;;;;12.03;69.61;94344.75;5155338;27;1020;-58
2023/03/10 08:08:41;;;;;;;;;;;;;;;12.14;69.30;94343.44;5155164;27;1049;-57
2023/03/10 08:11:09;;;;;;;;;;;;;;;11.97;69.26;94329.44;5150171;27;1243;-58
2023/03/10 08:13:35;;;;;;;;;;;;;;;11.95;69.54;94331.50;5115883;27;1906;-58
2023/03/10 08:16:01;;;;;;;;;;;;;;;12.02;69.15;94328.88;5134229;28;1115;-58
2023/03/10 08:18:28;;;;;;;;;;;;;;;11.93;69.36;94328.13;5134415;28;1048;-56
2023/03/10 08:20:55;;;;;;;;;;;;;;;12.03;69.41;94328.69;5134520;28;1031;-57
2023/03/10 08:23:21;;;;;;;;;;;;;;;12.09;68.68;94327.91;5134154;28;1088;-57
2023/03/10 08:25:47;;;;;;;;;;;;;;;11.94;69.38;94324.47;5134127;28;1049;-58
2023/03/10 08:28:13;;;;;;;;;;;;;;;11.77;70.65;94318.47;5134023;28;1045;-58
2023/03/10 08:30:39;;;;;;;;;;;;;;;11.67;71.28;94308.06;5115916;28;1044;-57
2023/03/10 08:33:09;;;;;;;;;;;;;;;11.75;71.17;94317.00;5134263;28;985;-58
2023/03/10 08:35:35;;;;;;;;;;;;;;;11.90;71.07;94307.09;5133625;28;1905;-56
2023/03/10 08:38:03;;;;;;;;;;;;;;;12.07;71.05;94300.47;5137615;27;1131;-57
2023/03/10 08:40:30;;;;;;;;;;;;;;;12.24;70.00;94290.34;5138160;27;1115;-57
2023/03/10 08:42:56;;;;;;;;;;;;;;;12.22;69.03;94295.06;5120321;27;961;-56
2023/03/10 08:45:22;;;;;;;;;;;;;;;12.34;69.60;94284.66;5138408;27;1039;-57
2023/03/10 08:47:48;;;;;;;;;;;;;;;12.54;68.35;94274.09;5138148;27;1045;-57
2023/03/10 08:50:14;;;;;;;;;;;;;;;12.94;66.27;94274.38;5138125;27;973;-57
2023/03/10 08:52:40;;;;;;;;;;;;;;;13.06;65.23;94275.47;5138101;27;969;-57
2023/03/10 08:55:06;;;;;;;;;;;;;;;13.38;64.66;94269.69;5137839;27;1905;-57
2023/03/10 08:57:33;;;;;;;;;;;;;;;13.64;64.81;94266.28;5137818;27;1024;-57
2023/03/10 08:59:59;;;;;;;;;;;;;;;13.92;63.47;94259.94;5137502;27;1097;-57
2023/03/10 09:02:25;;;;;;;;;;;;;;;13.95;63.06;94259.53;5138053;27;1032;-56
2023/03/10 09:04:51;;;;;;;;;;;;;;;13.67;64.54;94255.09;5137802;27;1104;-57
2023/03/10 09:07:17;;;;;;;;;;;;;;;13.63;64.34;94256.53;5119595;27;1031;-57
2023/03/10 09:09:43;;;;;;;;;;;;;;;13.60;64.49;94246.19;5137932;27;1012;-58
2023/03/10 09:12:10;;;;;;;;;;;;;;;13.38;64.45;94245.50;5151578;27;1248;-58
2023/03/10 09:14:36;;;;;;;;;;;;;;;13.18;65.38;94246.19;5158216;27;1917;-58
2023/03/10 09:17:03;;;;;;;;;;;;;;;13.12;65.48;94236.28;5158321;27;1096;-57
2023/03/10 09:19:29;;;;;;;;;;;;;;;13.13;65.38;94223.66;5158240;27;957;-57
2023/03/10 09:21:56;;;;;;;;;;;;;;;12.95;65.95;94230.41;5158259;27;1044;-57
2023/03/10 09:24:22;;;;;;;;;;;;;;;12.88;66.57;94225.03;5158058;27;973;-56
2023/03/10 09:26:49;;;;;;;;;;;;;;;12.83;67.19;94221.28;5158161;27;1056;-56
2023/03/10 09:29:15;;;;;;;;;;;;;;;12.82;66.66;94219.59;5139583;27;1056;-57
2023/03/10 09:31:42;;;;;;;;;;;;;;;12.68;66.59;94214.16;5158404;27;1121;-57
2023/03/10 09:34:10;;;;;;;;;;;;;;;12.68;67.37;94222.19;5158010;27;1988;-57
2023/03/10 09:36:37;;;;;;;;;;;;;;;12.76;66.75;94213.16;5158236;27;1079;-57
2023/03/10 09:39:03;;;;;;;;;;;;;;;12.86;66.75;94210.13;5157839;27;1060;-57
2023/03/10 09:41:42;;;;;;;;;;;;;;;12.87;66.97;94211.78;5157759;27;1475;-57
2023/03/10 09:44:17;;;;;;;;;;;;;;;12.85;66.71;94208.47;5157812;27;1053;-58
2023/03/10 09:46:52;;;;;;;;;;;;;;;12.91;66.78;94212.22;5158072;27;1051;-57
2023/03/10 09:49:25;;;;;;;;;;;;;;;12.93;66.46;94215.53;5157089;27;1048;-57
2023/03/10 09:51:51;;;;;;;;;;;;;;;12.87;66.88;94217.97;5139262;27;917;-57
2023/03/10 09:54:32;;;;;;;;;;;;;;;12.87;66.87;94214.47;5157405;27;1910;-57
2023/03/10 09:56:58;;;;;;;;;;;;;;;12.86;66.67;94219.03;5157738;27;961;-57
2023/03/10 09:59:34;;;;;;;;;;;;;;;12.88;67.25;94211.59;5157411;27;1071;-57
2023/03/10 10:02:02;;;;;;;;;;;;;;;12.86;67.39;94210.97;5157360;27;1119;-57
2023/03/10 10:04:37;;;;;;;;;;;;;;;12.86;67.38;94210.97;5157295;27;1096;-57
2023/03/10 10:07:06;;;;;;;;;;;;;;;12.90;67.33;94214.09;5157500;27;948;-57
2023/03/10 10:09:42;;;;;;;;;;;;;;;12.81;67.95;94209.91;5139182;27;1020;-57
2023/03/10 10:12:12;;;;;;;;;;;;;;;12.73;67.60;94216.25;5125466;27;1322;-55
2023/03/10 10:14:38;;;;;;;;;;;;;;;12.92;68.11;94208.50;5117974;27;1918;-58
2023/03/10 10:17:12;;;;;;;;;;;;;;;12.97;68.82;94220.28;5136765;27;953;-59
2023/03/10 10:19:39;;;;;;;;;;;;;;;13.00;68.85;94236.00;5136668;27;1065;-59
2023/03/10 10:22:17;;;;;;;;;;;;;;;13.06;68.37;94229.84;5136776;27;1036;-60
2023/03/10 10:25:02;;;;;;;;;;;;;;;13.11;69.55;94225.72;5136371;27;1072;-58
2023/03/10 10:27:31;;;;;;;;;;;;;;;13.17;68.87;94231.13;5136488;27;1026;-57
2023/03/10 10:29:57;;;;;;;;;;;;;;;13.20;67.51;94220.03;5136488;27;1005;-58
2023/03/10 10:32:23;;;;;;;;;;;;;;;13.12;68.35;94220.16;5136145;27;1061;-61
2023/03/10 10:34:49;;;;;;;;;;;;;;;13.08;68.21;94211.69;5117742;27;1992;-58
2023/03/10 10:37:32;;;;;;;;;;;;;;;13.06;69.56;94207.56;5135710;27;1044;-58
2023/03/10 10:39:59;;;;;;;;;;;;;;;13.03;70.67;94199.91;5135861;27;1039;-57
2023/03/10 10:42:27;;;;;;;;;;;;;;;12.81;72.33;94189.28;5135822;27;1023;-57
2023/03/10 10:44:56;;;;;;;;;;;;;;;12.67;72.63;94185.69;5135964;27;1039;-58
2023/03/10 10:47:25;;;;;;;;;;;;;;;12.64;74.12;94183.41;5135570;27;1029;-58
2023/03/10 10:49:51;;;;;;;;;;;;;;;12.60;74.50;94186.69;5136005;27;1009;-58
2023/03/10 10:52:22;;;;;;;;;;;;;;;12.59;73.60;94193.88;5135627;27;1136;-58
2023/03/10 10:54:53;;;;;;;;;;;;;;;12.72;74.65;94186.97;5135540;27;1987;-57
2023/03/10 10:57:20;;;;;;;;;;;;;;;12.56;74.93;94178.22;5117648;27;992;-58
2023/03/10 10:59:46;;;;;;;;;;;;;;;12.42;75.13;94166.56;5135536;27;1064;-57
2023/03/10 11:02:31;;;;;;;;;;;;;;;12.22;76.52;94153.03;5135560;27;1008;-57
2023/03/10 11:05:12;;;;;;;;;;;;;;;12.27;77.08;94142.56;5135374;27;1060;-56
2023/03/10 11:07:38;;;;;;;;;;;;;;;12.17;77.19;94128.66;5135779;27;969;-55
2023/03/10 11:10:10;;;;;;;;;;;;;;;12.15;78.18;94122.69;5135433;27;1120;-56
2023/03/10 11:12:42;;;;;;;;;;;;;;;12.01;78.31;94108.38;5152940;27;1571;-57
2023/03/10 11:15:16;;;;;;;;;;;;;;;12.38;78.89;94102.81;5156048;27;2011;-57
2023/03/10 11:17:47;;;;;;;;;;;;;;;12.96;76.63;94092.56;5156366;27;980;-57
2023/03/10 11:20:22;;;;;;;;;;;;;;;13.35;74.32;94079.47;5155906;27;1151;-57
2023/03/10 11:22:51;;;;;;;;;;;;;;;13.60;73.14;94085.06;5156220;27;1000;-57
2023/03/10 11:25:25;;;;;;;;;;;;;;;13.76;72.43;94076.59;5155780;27;1324;-57
2023/03/10 11:27:55;;;;;;;;;;;;;;;13.85;72.92;94066.50;5156154;27;1080;-56
2023/03/10 11:30:29;;;;;;;;;;;;;;;14.08;71.67;94055.28;5156027;27;1206;-54
2023/03/10 11:32:55;;;;;;;;;;;;;;;14.17;71.03;94047.81;5155763;27;1048;-54
2023/03/10 11:35:35;;;;;;;;;;;;;;;14.12;71.52;94043.09;5155513;27;1909;-54
2023/03/10 11:38:13;;;;;;;;;;;;;;;14.22;70.32;94043.47;5155557;27;1127;-56
2023/03/10 11:40:53;;;;;;;;;;;;;;;14.31;69.83;94011.81;5155752;27;969;-57
2023/03/10 11:43:26;;;;;;;;;;;;;;;14.47;69.72;94012.38;5155627;27;1031;-57
2023/03/10 11:45:53;;;;;;;;;;;;;;;14.49;69.55;94000.34;5155518;27;1024;-57
2023/03/10 11:48:28;;;;;;;;;;;;;;;14.68;68.62;94011.28;5155464;27;1051;-56
2023/03/10 11:50:54;;;;;;;;;;;;;;;14.71;68.51;93998.22;5155729;27;961;-57
2023/03/10 11:53:38;;;;;;;;;;;;;;;14.92;68.26;94002.47;5155229;27;1077;-58
2023/03/10 11:56:06;;;;;;;;;;;;;;;14.99;67.88;94019.41;5155710;27;1040;-57
2023/03/10 11:58:32;;;;;;;;;;;;;;;14.93;67.49;94022.97;5155226;27;1064;-57
2023/03/10 12:00:58;;;;;;;;;;;;;;;14.86;67.78;94015.97;5155555;27;961;-57
2023/03/10 12:03:48;;;;;;;;;;;;;;;14.74;68.39;94005.03;5155475;27;1027;-58
2023/03/10 12:06:18;;;;;;;;;;;;;;;14.74;68.81;94013.09;5155517;27;1047;-58
2023/03/10 12:08:45;;;;;;;;;;;;;;;14.75;68.48;93996.75;5155521;27;1060;-57
2023/03/10 12:11:14;;;;;;;;;;;;;;;14.67;68.70;94004.25;5149346;27;1299;-57
2023/03/10 12:13:51;;;;;;;;;;;;;;;14.53;70.79;94017.75;5134079;27;1998;-57
2023/03/10 12:16:20;;;;;;;;;;;;;;;14.39;72.44;94005.38;5134236;27;1124;-57
2023/03/10 12:18:46;;;;;;;;;;;;;;;14.31;75.47;94002.94;5134383;28;1057;-57
2023/03/10 12:21:14;;;;;;;;;;;;;;;14.30;77.04;93979.75;5134510;28;1086;-57
2023/03/10 12:23:41;;;;;;;;;;;;;;;14.45;77.99;93988.38;5134626;28;961;-58
2023/03/10 12:26:08;;;;;;;;;;;;;;;14.70;78.10;93968.84;5116047;28;930;-58
2023/03/10 12:28:34;;;;;;;;;;;;;;;14.93;75.98;93960.22;5134144;28;1041;-58
2023/03/10 12:31:01;;;;;;;;;;;;;;;15.11;74.02;93965.69;5134200;28;1097;-58
2023/03/10 12:33:32;;;;;;;;;;;;;;;15.43;73.48;93963.78;5134440;28;984;-58
2023/03/10 12:36:17;;;;;;;;;;;;;;;15.55;71.16;93966.56;5134180;28;1089;-57
2023/03/10 12:38:46;;;;;;;;;;;;;;;15.67;71.16;93958.63;5134068;28;1037;-58
2023/03/10 12:41:32;;;;;;;;;;;;;;;15.86;69.76;93948.72;5134255;28;985;-57
2023/03/10 12:44:19;;;;;;;;;;;;;;;16.10;67.03;93952.38;5134010;27;1108;-58
2023/03/10 12:46:47;;;;;;;;;;;;;;;16.35;66.04;93951.47;5133992;27;1243;-58
2023/03/10 12:49:22;;;;;;;;;;;;;;;16.33;64.67;93977.84;5134025;28;1091;-53
2023/03/10 12:51:52;;;;;;;;;;;;;;;16.28;64.36;93948.06;5134335;28;1121;-57
2023/03/10 12:54:37;;;;;;;;;;;;;;;16.19;64.18;93956.44;5133726;28;1905;-58
2023/03/10 12:57:22;;;;;;;;;;;;;;;16.18;64.22;93953.97;5134393;28;877;-58
2023/03/10 13:00:09;;;;;;;;;;;;;;;16.20;63.46;93933.84;5134244;28;945;-58
2023/03/10 13:02:46;;;;;;;;;;;;;;;16.34;63.42;93941.75;5082776;28;1300;-58
2023/03/10 13:05:23;;;;;;;;;;;;;;;16.30;62.97;93929.78;5133848;28;1092;-58
2023/03/10 13:07:52;;;;;;;;;;;;;;;16.36;62.30;93920.78;5115723;28;1053;-57
2023/03/10 13:10:20;;;;;;;;;;;;;;;16.22;62.28;93917.44;5134063;28;1095;-58